Terminal Aerodrome Forecast
Issued by NWS Mt. Holly, NJ

Home | Current Version | Previous Version | Text Only | Print | Product List | Glossary On
Versions: 1 2 3 4 5 6 7 8 9 10 11 12 13 14 15 16
000
FTUS41 KPHI 210520
TAFTTN
TAF
KTTN 210520Z 2106/2206 VRB02KT P6SM FEW250
     FM211200 VRB02KT P6SM SCT050 BKN150
     FM211700 VRB02KT P6SM SCT025 OVC050
     FM220200 VRB02KT P6SM SCT015 OVC025
     FM220400 VRB02KT P6SM BKN015 OVC025=

USA.gov is the U.S. government's official web portal to all federal, state and local government web resources and services.